sensor_id;sensor_type;location;lat;lon;timestamp;pressure;altitude;pressure_sealevel;temperature;humidity
57990;BME280;58373;51.824;5.564;2023-07-29T00:00:51;100681.25;;;17.95;100.00
57990;BME280;58373;51.824;5.564;2023-07-29T00:03:16;100668.16;;;17.95;100.00
57990;BME280;58373;51.824;5.564;2023-07-29T00:05:41;100656.00;;;17.94;100.00
57990;BME280;58373;51.824;5.564;2023-07-29T00:08:07;100650.31;;;17.91;100.00
57990;BME280;58373;51.824;5.564;2023-07-29T00:10:36;100647.03;;;17.89;100.00
57990;BME280;58373;51.824;5.564;2023-07-29T00:13:04;100644.56;;;17.87;100.00
57990;BME280;58373;51.824;5.564;2023-07-29T00:15:32;100646.22;;;17.88;100.00
57990;BME280;58373;51.824;5.564;2023-07-29T00:17:59;100637.72;;;17.86;100.00
57990;BME280;58373;51.824;5.564;2023-07-29T00:20:34;100636.41;;;17.82;100.00
57990;BME280;58373;51.824;5.564;2023-07-29T00:23:00;100631.53;;;17.79;100.00
57990;BME280;58373;51.824;5.564;2023-07-29T00:25:29;100636.31;;;17.75;99.97
57990;BME280;58373;51.824;5.564;2023-07-29T00:27:55;100628.13;;;17.70;100.00
57990;BME280;58373;51.824;5.564;2023-07-29T00:30:21;100634.56;;;17.68;100.00
57990;BME280;58373;51.824;5.564;2023-07-29T00:32:46;100632.78;;;17.60;100.00
57990;BME280;58373;51.824;5.564;2023-07-29T00:35:11;100629.06;;;17.55;100.00
57990;BME280;58373;51.824;5.564;2023-07-29T00:37:37;100627.81;;;17.50;100.00
57990;BME280;58373;51.824;5.564;2023-07-29T00:40:03;100628.66;;;17.43;100.00
57990;BME280;58373;51.824;5.564;2023-07-29T00:42:34;100625.75;;;17.38;100.00
57990;BME280;58373;51.824;5.564;2023-07-29T00:44:59;100623.47;;;17.35;100.00
57990;BME280;58373;51.824;5.564;2023-07-29T00:47:24;100639.03;;;17.36;100.00
57990;BME280;58373;51.824;5.564;2023-07-29T00:49:50;100650.19;;;17.38;100.00
57990;BME280;58373;51.824;5.564;2023-07-29T00:52:16;100632.44;;;17.40;100.00
57990;BME280;58373;51.824;5.564;2023-07-29T00:54:42;100642.31;;;17.38;100.00
57990;BME280;58373;51.824;5.564;2023-07-29T00:57:08;100632.44;;;17.40;100.00
57990;BME280;58373;51.824;5.564;2023-07-29T00:59:34;100630.47;;;17.42;100.00
57990;BME280;58373;51.824;5.564;2023-07-29T01:02:00;100632.75;;;17.45;100.00
57990;BME280;58373;51.824;5.564;2023-07-29T01:04:25;100631.75;;;17.46;100.00
57990;BME280;58373;51.824;5.564;2023-07-29T01:09:43;100628.13;;;17.47;100.00
57990;BME280;58373;51.824;5.564;2023-07-29T01:14:59;100614.72;;;17.42;100.00
57990;BME280;58373;51.824;5.564;2023-07-29T01:17:32;100618.72;;;17.38;100.00
57990;BME280;58373;51.824;5.564;2023-07-29T01:22:36;100616.44;;;17.35;100.00
57990;BME280;58373;51.824;5.564;2023-07-29T01:25:02;100626.28;;;17.33;100.00
57990;BME280;58373;51.824;5.564;2023-07-29T01:27:27;100617.75;;;17.31;100.00
57990;BME280;58373;51.824;5.564;2023-07-29T01:29:56;100620.56;;;17.30;100.00
57990;BME280;58373;51.824;5.564;2023-07-29T01:32:27;100622.38;;;17.29;100.00
57990;BME280;58373;51.824;5.564;2023-07-29T01:34:57;100613.69;;;17.29;100.00
57990;BME280;58373;51.824;5.564;2023-07-29T01:37:27;100625.00;;;17.29;100.00
57990;BME280;58373;51.824;5.564;2023-07-29T01:39:56;100621.38;;;17.30;100.00
57990;BME280;58373;51.824;5.564;2023-07-29T01:42:22;100616.13;;;17.30;100.00
57990;BME280;58373;51.824;5.564;2023-07-29T01:44:48;100617.75;;;17.31;100.00
57990;BME280;58373;51.824;5.564;2023-07-29T01:47:16;100616.59;;;17.34;100.00
57990;BME280;58373;51.824;5.564;2023-07-29T01:49:44;100616.59;;;17.34;100.00
57990;BME280;58373;51.824;5.564;2023-07-29T01:52:13;100610.56;;;17.33;100.00
57990;BME280;58373;51.824;5.564;2023-07-29T01:54:38;100615.78;;;17.33;100.00
57990;BME280;58373;51.824;5.564;2023-07-29T01:57:06;100615.78;;;17.33;100.00
57990;BME280;58373;51.824;5.564;2023-07-29T01:59:31;100612.19;;;17.34;100.00
57990;BME280;58373;51.824;5.564;2023-07-29T02:01:57;100615.78;;;17.33;100.00
57990;BME280;58373;51.824;5.564;2023-07-29T02:04:27;100623.66;;;17.33;100.00
57990;BME280;58373;51.824;5.564;2023-07-29T02:06:52;100616.94;;;17.31;100.00
57990;BME280;58373;51.824;5.564;2023-07-29T02:09:17;100617.75;;;17.31;100.00
57990;BME280;58373;51.824;5.564;2023-07-29T02:11:43;100617.75;;;17.31;100.00
57990;BME280;58373;51.824;5.564;2023-07-29T02:14:08;100610.06;;;17.30;100.00
57990;BME280;58373;51.824;5.564;2023-07-29T02:16:33;100616.13;;;17.30;100.00
57990;BME280;58373;51.824;5.564;2023-07-29T02:18:59;100613.50;;;17.30;100.00
57990;BME280;58373;51.824;5.564;2023-07-29T02:21:25;100609.88;;;17.31;100.00
57990;BME280;58373;51.824;5.564;2023-07-29T02:23:52;100605.63;;;17.30;100.00
57990;BME280;58373;51.824;5.564;2023-07-29T02:26:20;100609.25;;;17.29;100.00
57990;BME280;58373;51.824;5.564;2023-07-29T02:28:45;100606.00;;;17.27;100.00
57990;BME280;58373;51.824;5.564;2023-07-29T02:31:17;100607.63;;;17.28;100.00
57990;BME280;58373;51.824;5.564;2023-07-29T02:33:43;100599.78;;;17.28;100.00
57990;BME280;58373;51.824;5.564;2023-07-29T02:36:09;100594.53;;;17.28;100.00
57990;BME280;58373;51.824;5.564;2023-07-29T02:38:34;100589.47;;;17.27;100.00
57990;BME280;58373;51.824;5.564;2023-07-29T02:41:02;100593.88;;;17.26;100.00
57990;BME280;58373;51.824;5.564;2023-07-29T02:43:27;100590.44;;;17.25;100.00
57990;BME280;58373;51.824;5.564;2023-07-29T02:45:57;100599.47;;;17.23;100.00
57990;BME280;58373;51.824;5.564;2023-07-29T02:48:30;100591.13;;;17.19;100.00
57990;BME280;58373;51.824;5.564;2023-07-29T02:50:58;100587.69;;;17.19;100.00
57990;BME280;58373;51.824;5.564;2023-07-29T02:53:24;100595.75;;;17.17;100.00
57990;BME280;58373;51.824;5.564;2023-07-29T02:55:49;100594.28;;;17.15;100.00
57990;BME280;58373;51.824;5.564;2023-07-29T02:58:17;100596.25;;;17.13;100.00
57990;BME280;58373;51.824;5.564;2023-07-29T03:00:42;100600.50;;;17.14;100.00
57990;BME280;58373;51.824;5.564;2023-07-29T03:03:08;100596.44;;;17.11;100.00
57990;BME280;58373;51.824;5.564;2023-07-29T03:05:36;100593.00;;;17.11;100.00
57990;BME280;58373;51.824;5.564;2023-07-29T03:08:04;100588.09;;;17.08;100.00
57990;BME280;58373;51.824;5.564;2023-07-29T03:10:29;100581.41;;;17.05;100.00
57990;BME280;58373;51.824;5.564;2023-07-29T03:12:57;100583.38;;;17.03;100.00
57990;BME280;58373;51.824;5.564;2023-07-29T03:15:23;100586.16;;;17.02;100.00
57990;BME280;58373;51.824;5.564;2023-07-29T03:17:49;100587.16;;;17.01;100.00
57990;BME280;58373;51.824;5.564;2023-07-29T03:20:14;100586.53;;;16.98;100.00
57990;BME280;58373;51.824;5.564;2023-07-29T03:22:40;100588.47;;;16.96;100.00
57990;BME280;58373;51.824;5.564;2023-07-29T03:25:05;100588.03;;;16.93;100.00
57990;BME280;58373;51.824;5.564;2023-07-29T03:27:33;100579.88;;;16.88;100.00
57990;BME280;58373;51.824;5.564;2023-07-29T03:29:58;100583.47;;;16.87;100.00
57990;BME280;58373;51.824;5.564;2023-07-29T03:32:27;100589.88;;;16.84;100.00
57990;BME280;58373;51.824;5.564;2023-07-29T03:34:52;100579.75;;;16.81;100.00
57990;BME280;58373;51.824;5.564;2023-07-29T03:37:17;100586.94;;;16.79;100.00
57990;BME280;58373;51.824;5.564;2023-07-29T03:39:46;100583.69;;;16.77;100.00
57990;BME280;58373;51.824;5.564;2023-07-29T03:42:14;100587.28;;;16.76;100.00
57990;BME280;58373;51.824;5.564;2023-07-29T03:44:41;100584.00;;;16.74;100.00
57990;BME280;58373;51.824;5.564;2023-07-29T03:47:09;100585.19;;;16.71;100.00
57990;BME280;58373;51.824;5.564;2023-07-29T03:49:34;100589.59;;;16.71;100.00
57990;BME280;58373;51.824;5.564;2023-07-29T03:52:00;100586.31;;;16.69;100.00
57990;BME280;58373;51.824;5.564;2023-07-29T03:54:27;100591.88;;;16.66;100.00
57990;BME280;58373;51.824;5.564;2023-07-29T03:56:53;100595.50;;;16.65;100.00
57990;BME280;58373;51.824;5.564;2023-07-29T03:59:21;100597.44;;;16.63;100.00
57990;BME280;58373;51.824;5.564;2023-07-29T04:01:47;100598.44;;;16.62;100.00
57990;BME280;58373;51.824;5.564;2023-07-29T04:04:13;100603.03;;;16.60;100.00
57990;BME280;58373;51.824;5.564;2023-07-29T04:06:38;100587.66;;;16.57;100.00
57990;BME280;58373;51.824;5.564;2023-07-29T04:09:04;100584.41;;;16.55;100.00
57990;BME280;58373;51.824;5.564;2023-07-29T04:14:07;100573.00;;;16.48;100.00
57990;BME280;58373;51.824;5.564;2023-07-29T04:16:32;100560.88;;;16.46;100.00
57990;BME280;58373;51.824;5.564;2023-07-29T04:18:59;100552.38;;;16.44;100.00
57990;BME280;58373;51.824;5.564;2023-07-29T04:21:34;100556.66;;;16.37;100.00
57990;BME280;58373;51.824;5.564;2023-07-29T04:23:59;100565.50;;;16.36;100.00
57990;BME280;58373;51.824;5.564;2023-07-29T04:26:24;100556.03;;;16.35;100.00
57990;BME280;58373;51.824;5.564;2023-07-29T04:28:52;100560.59;;;16.33;100.00
57990;BME280;58373;51.824;5.564;2023-07-29T04:31:20;100568.63;;;16.32;100.00
57990;BME280;58373;51.824;5.564;2023-07-29T04:33:54;100568.78;;;16.30;100.00
57990;BME280;58373;51.824;5.564;2023-07-29T04:36:20;100581.88;;;16.30;100.00
57990;BME280;58373;51.824;5.564;2023-07-29T04:38:47;100588.25;;;16.28;100.00
57990;BME280;58373;51.824;5.564;2023-07-29T04:41:12;100593.03;;;16.24;100.00
57990;BME280;58373;51.824;5.564;2023-07-29T04:43:38;100603.50;;;16.24;100.00
57990;BME280;58373;51.824;5.564;2023-07-29T04:46:05;100608.72;;;16.24;100.00
57990;BME280;58373;51.824;5.564;2023-07-29T04:48:33;100602.69;;;16.24;100.00
57990;BME280;58373;51.824;5.564;2023-07-29T04:51:01;100596.94;;;16.20;100.00
57990;BME280;58373;51.824;5.564;2023-07-29T04:53:31;100604.81;;;16.20;100.00
57990;BME280;58373;51.824;5.564;2023-07-29T04:55:56;100605.44;;;16.22;100.00
57990;BME280;58373;51.824;5.564;2023-07-29T04:58:21;100605.44;;;16.22;99.99
57990;BME280;58373;51.824;5.564;2023-07-29T05:00:47;100604.63;;;16.22;100.00
57990;BME280;58373;51.824;5.564;2023-07-29T05:03:15;100607.41;;;16.20;100.00
57990;BME280;58373;51.824;5.564;2023-07-29T05:05:41;100617.88;;;16.20;100.00
57990;BME280;58373;51.824;5.564;2023-07-29T05:08:06;100614.28;;;16.21;100.00
57990;BME280;58373;51.824;5.564;2023-07-29T05:10:34;100613.97;;;16.24;100.00
57990;BME280;58373;51.824;5.564;2023-07-29T05:13:01;100613.97;;;16.24;100.00
57990;BME280;58373;51.824;5.564;2023-07-29T05:15:27;100624.44;;;16.24;100.00
57990;BME280;58373;51.824;5.564;2023-07-29T05:17:54;100617.22;;;16.26;100.00
57990;BME280;58373;51.824;5.564;2023-07-29T05:20:19;100615.59;;;16.25;100.00
57990;BME280;58373;51.824;5.564;2023-07-29T05:22:53;100620.47;;;16.28;100.00
57990;BME280;58373;51.824;5.564;2023-07-29T05:25:19;100620.47;;;16.28;100.00
57990;BME280;58373;51.824;5.564;2023-07-29T05:27:46;100624.06;;;16.27;100.00
57990;BME280;58373;51.824;5.564;2023-07-29T05:30:12;100625.69;;;16.28;100.00
57990;BME280;58373;51.824;5.564;2023-07-29T05:32:37;100623.09;;;16.28;100.00
57990;BME280;58373;51.824;5.564;2023-07-29T05:35:02;100629.31;;;16.27;100.00
57990;BME280;58373;51.824;5.564;2023-07-29T05:37:28;100629.31;;;16.27;100.00
57990;BME280;58373;51.824;5.564;2023-07-29T05:39:55;100622.94;;;16.30;99.96
57990;BME280;58373;51.824;5.564;2023-07-29T05:42:26;100627.00;;;16.32;100.00
57990;BME280;58373;51.824;5.564;2023-07-29T05:44:51;100633.06;;;16.33;100.00
57990;BME280;58373;51.824;5.564;2023-07-29T05:47:17;100637.47;;;16.32;100.00
57990;BME280;58373;51.824;5.564;2023-07-29T05:49:42;100623.75;;;16.30;100.00
57990;BME280;58373;51.824;5.564;2023-07-29T05:52:07;100631.56;;;16.38;100.00
57990;BME280;58373;51.824;5.564;2023-07-29T05:54:33;100631.25;;;16.41;100.00
57990;BME280;58373;51.824;5.564;2023-07-29T05:56:58;100625.66;;;16.44;100.00
57990;BME280;58373;51.824;5.564;2023-07-29T05:59:25;100626.97;;;16.49;100.00
57990;BME280;58373;51.824;5.564;2023-07-29T06:01:54;100621.72;;;16.49;100.00
57990;BME280;58373;51.824;5.564;2023-07-29T06:04:19;100635.13;;;16.54;100.00
57990;BME280;58373;51.824;5.564;2023-07-29T06:06:44;100624.00;;;16.60;100.00
57990;BME280;58373;51.824;5.564;2023-07-29T06:09:12;100629.53;;;16.65;100.00
57990;BME280;58373;51.824;5.564;2023-07-29T06:11:37;100629.53;;;16.73;100.00
57990;BME280;58373;51.824;5.564;2023-07-29T06:14:03;100623.59;;;16.79;100.00
57990;BME280;58373;51.824;5.564;2023-07-29T06:16:28;100626.53;;;16.84;100.00
57990;BME280;58373;51.824;5.564;2023-07-29T06:18:53;100623.22;;;16.90;100.00
57990;BME280;58373;51.824;5.564;2023-07-29T06:21:21;100628.78;;;16.95;100.00
57990;BME280;58373;51.824;5.564;2023-07-29T06:23:47;100630.06;;;16.99;99.85
57990;BME280;58373;51.824;5.564;2023-07-29T06:26:12;100622.84;;;17.02;99.57
57990;BME280;58373;51.824;5.564;2023-07-29T06:28:37;100631.00;;;17.07;99.55
57990;BME280;58373;51.824;5.564;2023-07-29T06:31:02;100630.69;;;17.10;99.46
57990;BME280;58373;51.824;5.564;2023-07-29T06:33:28;100643.25;;;17.14;99.29
57990;BME280;58373;51.824;5.564;2023-07-29T06:35:53;100637.66;;;17.17;99.04
57990;BME280;58373;51.824;5.564;2023-07-29T06:38:18;100638.50;;;17.18;98.70
57990;BME280;58373;51.824;5.564;2023-07-29T06:40:46;100636.84;;;17.17;98.50
57990;BME280;58373;51.824;5.564;2023-07-29T06:43:12;100648.97;;;17.18;98.49
57990;BME280;58373;51.824;5.564;2023-07-29T06:45:40;100640.78;;;17.21;98.59
57990;BME280;58373;51.824;5.564;2023-07-29T06:48:05;100637.78;;;17.24;98.32
57990;BME280;58373;51.824;5.564;2023-07-29T06:50:30;100643.03;;;17.24;98.01
57990;BME280;58373;51.824;5.564;2023-07-29T06:52:55;100645.47;;;17.25;98.22
57990;BME280;58373;51.824;5.564;2023-07-29T06:55:21;100646.28;;;17.26;98.16
57990;BME280;58373;51.824;5.564;2023-07-29T06:57:46;100644.78;;;17.32;98.25
57990;BME280;58373;51.824;5.564;2023-07-29T07:00:11;100655.75;;;17.35;98.21
57990;BME280;58373;51.824;5.564;2023-07-29T07:02:37;100657.03;;;17.39;97.90
57990;BME280;58373;51.824;5.564;2023-07-29T07:05:02;100646.19;;;17.42;98.03
57990;BME280;58373;51.824;5.564;2023-07-29T07:07:27;100648.31;;;17.47;97.98
57990;BME280;58373;51.824;5.564;2023-07-29T07:09:52;100655.75;;;17.58;98.51
57990;BME280;58373;51.824;5.564;2023-07-29T07:12:17;100651.91;;;17.69;98.39
57990;BME280;58373;51.824;5.564;2023-07-29T07:14:43;100658.13;;;17.76;97.86
57990;BME280;58373;51.824;5.564;2023-07-29T07:17:08;100657.06;;;17.85;97.64
57990;BME280;58373;51.824;5.564;2023-07-29T07:19:33;100652.13;;;17.90;97.41
57990;BME280;58373;51.824;5.564;2023-07-29T07:21:58;100665.53;;;17.95;97.47
57990;BME280;58373;51.824;5.564;2023-07-29T07:24:23;100651.69;;;18.01;97.35
57990;BME280;58373;51.824;5.564;2023-07-29T07:26:48;100663.09;;;18.09;97.13
57990;BME280;58373;51.824;5.564;2023-07-29T07:29:14;100659.13;;;18.13;96.93
57990;BME280;58373;51.824;5.564;2023-07-29T07:31:39;100662.66;;;18.20;96.83
57990;BME280;58373;51.824;5.564;2023-07-29T07:34:04;100661.31;;;18.24;96.70
57990;BME280;58373;51.824;5.564;2023-07-29T07:36:29;100663.38;;;18.28;96.34
57990;BME280;58373;51.824;5.564;2023-07-29T07:38:55;100664.84;;;18.31;95.87
57990;BME280;58373;51.824;5.564;2023-07-29T07:41:20;100671.09;;;18.30;95.68
57990;BME280;58373;51.824;5.564;2023-07-29T07:43:45;100663.03;;;18.31;95.61
57990;BME280;58373;51.824;5.564;2023-07-29T07:46:11;100660.22;;;18.33;95.81
57990;BME280;58373;51.824;5.564;2023-07-29T07:48:36;100664.75;;;18.39;95.30
57990;BME280;58373;51.824;5.564;2023-07-29T07:51:09;100670.81;;;18.40;95.42
57990;BME280;58373;51.824;5.564;2023-07-29T07:53:35;100665.41;;;18.41;95.47
57990;BME280;58373;51.824;5.564;2023-07-29T07:56:00;100663.22;;;18.45;95.38
57990;BME280;58373;51.824;5.564;2023-07-29T07:58:25;100664.31;;;18.50;94.96
57990;BME280;58373;51.824;5.564;2023-07-29T08:00:52;100673.09;;;18.57;94.63
57990;BME280;58373;51.824;5.564;2023-07-29T08:03:25;100670.41;;;18.66;94.76
57990;BME280;58373;51.824;5.564;2023-07-29T08:05:50;100667.69;;;18.74;94.70
57990;BME280;58373;51.824;5.564;2023-07-29T08:08:15;100676.50;;;18.81;93.57
57990;BME280;58373;51.824;5.564;2023-07-29T08:10:41;100675.13;;;18.85;93.85
57990;BME280;58373;51.824;5.564;2023-07-29T08:13:06;100679.63;;;18.91;93.37
57990;BME280;58373;51.824;5.564;2023-07-29T08:15:31;100679.28;;;18.94;93.16
57990;BME280;58373;51.824;5.564;2023-07-29T08:17:56;100685.44;;;19.01;92.72
57990;BME280;58373;51.824;5.564;2023-07-29T08:20:21;100684.69;;;19.07;92.68
57990;BME280;58373;51.824;5.564;2023-07-29T08:22:46;100683.97;;;19.14;92.51
57990;BME280;58373;51.824;5.564;2023-07-29T08:25:12;100681.59;;;19.19;92.04
57990;BME280;58373;51.824;5.564;2023-07-29T08:27:39;100685.22;;;19.18;92.06
57990;BME280;58373;51.824;5.564;2023-07-29T08:30:07;100688.13;;;19.23;91.68
57990;BME280;58373;51.824;5.564;2023-07-29T08:32:35;100687.72;;;19.26;91.23
57990;BME280;58373;51.824;5.564;2023-07-29T08:35:02;100689.00;;;19.30;91.19
57990;BME280;58373;51.824;5.564;2023-07-29T08:37:30;100683.75;;;19.30;90.99
57990;BME280;58373;51.824;5.564;2023-07-29T08:39:57;100688.44;;;19.34;90.66
57990;BME280;58373;51.824;5.564;2023-07-29T08:42:27;100674.50;;;19.34;89.67
57990;BME280;58373;51.824;5.564;2023-07-29T08:45:08;100682.38;;;19.34;89.56
57990;BME280;58373;51.824;5.564;2023-07-29T08:47:41;100696.28;;;19.28;89.72
57990;BME280;58373;51.824;5.564;2023-07-29T08:50:12;100698.91;;;19.28;89.76
57990;BME280;58373;51.824;5.564;2023-07-29T08:52:43;100687.72;;;19.26;89.84
57990;BME280;58373;51.824;5.564;2023-07-29T08:55:09;100691.00;;;19.28;89.34
57990;BME280;58373;51.824;5.564;2023-07-29T08:57:34;100699.53;;;19.30;89.73
57990;BME280;58373;51.824;5.564;2023-07-29T09:00:00;100687.00;;;19.32;89.99
57990;BME280;58373;51.824;5.564;2023-07-29T09:02:26;100688.25;;;19.36;89.63
57990;BME280;58373;51.824;5.564;2023-07-29T09:05:15;100689.13;;;19.43;89.61
57990;BME280;58373;51.824;5.564;2023-07-29T09:07:42;100686.41;;;19.51;89.50
57990;BME280;58373;51.824;5.564;2023-07-29T09:10:16;100676.78;;;19.58;89.01
57990;BME280;58373;51.824;5.564;2023-07-29T09:12:46;100680.69;;;19.62;89.11
57990;BME280;58373;51.824;5.564;2023-07-29T09:15:13;100676.28;;;19.70;88.95
57990;BME280;58373;51.824;5.564;2023-07-29T09:17:53;100676.53;;;19.75;88.22
57990;BME280;58373;51.824;5.564;2023-07-29T09:20:23;100674.16;;;19.80;87.86
57990;BME280;58373;51.824;5.564;2023-07-29T09:22:48;100673.75;;;19.83;87.97
57990;BME280;58373;51.824;5.564;2023-07-29T09:25:26;100673.44;;;19.93;87.86
57990;BME280;58373;51.824;5.564;2023-07-29T09:27:51;100667.22;;;20.00;87.66
57990;BME280;58373;51.824;5.564;2023-07-29T09:30:19;100663.47;;;20.09;86.78
57990;BME280;58373;51.824;5.564;2023-07-29T09:35:51;100668.31;;;20.12;86.14
57990;BME280;58373;51.824;5.564;2023-07-29T09:38:16;100668.72;;;20.09;86.52
57990;BME280;58373;51.824;5.564;2023-07-29T09:40:41;100676.81;;;20.08;86.54
57990;BME280;58373;51.824;5.564;2023-07-29T09:43:07;100669.09;;;20.06;86.26
57990;BME280;58373;51.824;5.564;2023-07-29T09:45:33;100661.97;;;20.00;86.29
57990;BME280;58373;51.824;5.564;2023-07-29T09:47:59;100672.75;;;20.05;86.58
57990;BME280;58373;51.824;5.564;2023-07-29T09:50:27;100669.09;;;20.06;86.23
57990;BME280;58373;51.824;5.564;2023-07-29T09:52:53;100673.38;;;20.07;86.08
57990;BME280;58373;51.824;5.564;2023-07-29T09:55:21;100664.06;;;20.11;86.07
57990;BME280;58373;51.824;5.564;2023-07-29T09:57:47;100664.03;;;20.33;85.79
57990;BME280;58373;51.824;5.564;2023-07-29T10:00:17;100662.13;;;20.48;84.95
57990;BME280;58373;51.824;5.564;2023-07-29T10:02:43;100658.97;;;20.59;85.51
57990;BME280;58373;51.824;5.564;2023-07-29T10:05:09;100673.22;;;20.72;85.05
57990;BME280;58373;51.824;5.564;2023-07-29T10:07:38;100663.50;;;20.79;84.28
57990;BME280;58373;51.824;5.564;2023-07-29T10:10:04;100662.72;;;20.85;83.35
57990;BME280;58373;51.824;5.564;2023-07-29T10:12:30;100666.75;;;20.81;82.68
57990;BME280;58373;51.824;5.564;2023-07-29T10:14:55;100668.41;;;20.82;83.21
57990;BME280;58373;51.824;5.564;2023-07-29T10:17:23;100662.72;;;20.85;83.25
57990;BME280;58373;51.824;5.564;2023-07-29T10:23:04;100670.06;;;20.96;82.69
57990;BME280;58373;51.824;5.564;2023-07-29T10:41:16;100661.22;;;21.24;80.03
57990;BME280;58373;51.824;5.564;2023-07-29T10:44:21;100662.31;;;21.36;80.00
57990;BME280;58373;51.824;5.564;2023-07-29T10:46:58;100658.88;;;21.48;79.75
57990;BME280;58373;51.824;5.564;2023-07-29T10:49:23;100656.06;;;21.57;79.24
57990;BME280;58373;51.824;5.564;2023-07-29T10:51:48;100662.97;;;21.64;78.19
57990;BME280;58373;51.824;5.564;2023-07-29T10:54:22;100659.31;;;21.65;78.74
57990;BME280;58373;51.824;5.564;2023-07-29T10:56:48;100671.09;;;21.69;77.87
57990;BME280;58373;51.824;5.564;2023-07-29T11:01:51;100662.97;;;21.64;76.43
57990;BME280;58373;51.824;5.564;2023-07-29T11:12:32;100664.56;;;21.65;76.32
57990;BME280;58373;51.824;5.564;2023-07-29T11:14:51;100663.78;;;21.65;75.48
57990;BME280;58373;51.824;5.564;2023-07-29T11:17:16;100664.56;;;21.52;74.44
57990;BME280;58373;51.824;5.564;2023-07-29T11:19:44;100660.50;;;21.43;75.11
57990;BME280;58373;51.824;5.564;2023-07-29T11:22:09;100669.41;;;21.35;75.43
57990;BME280;58373;51.824;5.564;2023-07-29T11:24:35;100667.38;;;21.31;75.39
57990;BME280;58373;51.824;5.564;2023-07-29T11:27:00;100672.16;;;21.20;75.19
57990;BME280;58373;51.824;5.564;2023-07-29T11:29:28;100673.75;;;21.08;75.68
57990;BME280;58373;51.824;5.564;2023-07-29T11:31:53;100690.31;;;20.89;76.94
57990;BME280;58373;51.824;5.564;2023-07-29T11:34:30;100709.31;;;20.78;77.86
57990;BME280;58373;51.824;5.564;2023-07-29T11:37:13;100723.13;;;20.52;79.60
57990;BME280;58373;51.824;5.564;2023-07-29T11:39:41;100707.91;;;19.98;81.48
57990;BME280;58373;51.824;5.564;2023-07-29T11:42:09;100711.31;;;19.70;82.00
57990;BME280;58373;51.824;5.564;2023-07-29T11:44:42;100711.50;;;19.54;82.68
57990;BME280;58373;51.824;5.564;2023-07-29T11:47:13;100710.56;;;19.40;82.73
57990;BME280;58373;51.824;5.564;2023-07-29T11:50:19;100716.66;;;19.26;83.26
57990;BME280;58373;51.824;5.564;2023-07-29T11:52:46;100703.72;;;19.09;83.68
57990;BME280;58373;51.824;5.564;2023-07-29T11:55:12;100704.09;;;19.06;83.58
57990;BME280;58373;51.824;5.564;2023-07-29T11:57:41;100697.22;;;18.91;84.24
57990;BME280;58373;51.824;5.564;2023-07-29T12:00:09;100701.78;;;18.82;84.63
57990;BME280;58373;51.824;5.564;2023-07-29T12:02:36;100711.34;;;18.75;85.57
57990;BME280;58373;51.824;5.564;2023-07-29T12:05:36;100712.19;;;18.75;85.96
57990;BME280;58373;51.824;5.564;2023-07-29T12:08:02;100706.09;;;18.75;86.89
57990;BME280;58373;51.824;5.564;2023-07-29T12:10:27;100693.97;;;18.74;87.04
57990;BME280;58373;51.824;5.564;2023-07-29T12:12:55;100693.97;;;18.74;87.51
57990;BME280;58373;51.824;5.564;2023-07-29T12:15:24;100695.59;;;18.75;87.90
57990;BME280;58373;51.824;5.564;2023-07-29T12:17:52;100699.69;;;18.77;88.23
57990;BME280;58373;51.824;5.564;2023-07-29T12:20:17;100694.06;;;18.80;88.39
57990;BME280;58373;51.824;5.564;2023-07-29T12:25:32;100698.16;;;18.83;90.14
57990;BME280;58373;51.824;5.564;2023-07-29T12:28:07;100696.22;;;18.92;89.80
57990;BME280;58373;51.824;5.564;2023-07-29T12:30:40;100702.00;;;19.02;89.68
57990;BME280;58373;51.824;5.564;2023-07-29T12:33:06;100700.94;;;19.11;90.04
57990;BME280;58373;51.824;5.564;2023-07-29T12:35:37;100707.88;;;19.19;91.21
57990;BME280;58373;51.824;5.564;2023-07-29T12:38:02;100714.41;;;19.23;90.72
57990;BME280;58373;51.824;5.564;2023-07-29T12:40:28;100722.91;;;19.25;91.30
57990;BME280;58373;51.824;5.564;2023-07-29T12:42:53;100720.56;;;19.30;92.48
57990;BME280;58373;51.824;5.564;2023-07-29T12:45:19;100721.09;;;19.40;92.03
57990;BME280;58373;51.824;5.564;2023-07-29T12:47:44;100715.59;;;19.56;93.33
57990;BME280;58373;51.824;5.564;2023-07-29T12:50:10;100722.66;;;19.71;94.19
57990;BME280;58373;51.824;5.564;2023-07-29T12:52:35;100704.47;;;19.76;93.47
57990;BME280;58373;51.824;5.564;2023-07-29T12:55:00;100709.38;;;19.79;93.48
57990;BME280;58373;51.824;5.564;2023-07-29T12:57:25;100708.19;;;19.81;92.22
57990;BME280;58373;51.824;5.564;2023-07-29T12:59:50;100700.09;;;19.83;93.65
57990;BME280;58373;51.824;5.564;2023-07-29T13:02:16;100702.97;;;19.88;93.37
57990;BME280;58373;51.824;5.564;2023-07-29T13:04:41;100701.44;;;20.00;94.86
57990;BME280;58373;51.824;5.564;2023-07-29T13:07:06;100696.72;;;20.17;94.93
57990;BME280;58373;51.824;5.564;2023-07-29T13:09:31;100693.59;;;20.35;94.15
57990;BME280;58373;51.824;5.564;2023-07-29T13:11:59;100685.34;;;20.38;93.02
57990;BME280;58373;51.824;5.564;2023-07-29T13:14:25;100691.66;;;20.43;92.19
57990;BME280;58373;51.824;5.564;2023-07-29T13:16:51;100683.94;;;20.42;92.75
57990;BME280;58373;51.824;5.564;2023-07-29T13:19:16;100687.19;;;20.44;92.59
57990;BME280;58373;51.824;5.564;2023-07-29T13:21:43;100685.66;;;20.50;92.35
57990;BME280;58373;51.824;5.564;2023-07-29T13:24:08;100688.53;;;20.55;92.22
57990;BME280;58373;51.824;5.564;2023-07-29T13:26:33;100687.31;;;20.57;92.28
57990;BME280;58373;51.824;5.564;2023-07-29T13:28:58;100688.78;;;20.66;92.42
57990;BME280;58373;51.824;5.564;2023-07-29T13:31:24;100696.53;;;20.75;91.59